createdAt,value
2022-10-30T00:01:23.334Z,97543.66
2022-10-30T00:03:52.912Z,97548.72
2022-10-30T00:06:19.496Z,97552.63
2022-10-30T00:08:46.059Z,97550.25
2022-10-30T00:11:13.840Z,97556.09
2022-10-30T00:13:42.589Z,97553.81
2022-10-30T00:16:09.460Z,97552.22
2022-10-30T00:18:37.488Z,97544.91
2022-10-30T00:21:12.894Z,97552.28
2022-10-30T00:23:46.300Z,97548.78
2022-10-30T00:26:17.643Z,97550.72
2022-10-30T00:28:44.389Z,97537.59
2022-10-30T00:31:14.168Z,97538.00
2022-10-30T00:33:43.388Z,97538.13
2022-10-30T00:36:14.382Z,97532.38
2022-10-30T00:38:40.915Z,97535.97
2022-10-30T00:41:16.565Z,97537.09
2022-10-30T00:43:43.598Z,97532.53
2022-10-30T00:46:28.888Z,97521.69
2022-10-30T00:49:03.127Z,97523.72
2022-10-30T00:51:35.158Z,97522.16
2022-10-30T00:54:04.399Z,97517.16
2022-10-30T00:56:31.870Z,97519.94
2022-10-30T00:59:26.411Z,97510.94
2022-10-30T01:01:56.236Z,97522.56
2022-10-30T01:04:28.936Z,97516.38
2022-10-30T01:06:58.474Z,97518.06
2022-10-30T01:09:25.062Z,97514.56
2022-10-30T01:11:58.184Z,97516.19
2022-10-30T01:14:25.016Z,97517.41
2022-10-30T01:17:03.532Z,97520.81
2022-10-30T01:19:53.277Z,97518.38
2022-10-30T01:22:41.685Z,97522.69
2022-10-30T01:25:32.974Z,97513.50
2022-10-30T01:28:05.115Z,97525.81
2022-10-30T01:30:50.141Z,97518.09
2022-10-30T01:33:31.875Z,97517.75
2022-10-30T01:36:25.280Z,97513.78
2022-10-30T01:38:56.133Z,97517.69
2022-10-30T01:41:27.487Z,97516.44
2022-10-30T01:44:03.846Z,97520.25
2022-10-30T01:46:41.709Z,97506.63
2022-10-30T01:52:27.691Z,97508.88
2022-10-30T01:55:06.247Z,97510.94
2022-10-30T01:58:20.320Z,97509.41
2022-10-30T02:00:52.679Z,97500.94
2022-10-30T02:03:19.854Z,97502.41
2022-10-30T02:05:52.235Z,97507.47
2022-10-30T02:08:19.862Z,97507.16
2022-10-30T02:10:48.518Z,97500.88
2022-10-30T02:13:18.443Z,97506.03
2022-10-30T02:15:46.696Z,97497.78
2022-10-30T02:18:13.354Z,97503.19
2022-10-30T02:20:42.208Z,97501.59
2022-10-30T02:23:18.812Z,97499.16
2022-10-30T02:25:48.096Z,97498.41
2022-10-30T02:28:14.618Z,97502.63
2022-10-30T02:30:44.222Z,97494.47
2022-10-30T02:33:11.244Z,97490.50
2022-10-30T02:35:37.851Z,97483.66
2022-10-30T02:38:04.381Z,97487.84
2022-10-30T02:40:31.016Z,97488.59
2022-10-30T02:42:57.586Z,97492.06
2022-10-30T02:45:24.165Z,97478.50
2022-10-30T02:47:50.781Z,97486.41
2022-10-30T02:50:20.558Z,97484.91
2022-10-30T02:52:54.408Z,97492.09
2022-10-30T02:55:26.043Z,97483.13
2022-10-30T02:57:55.064Z,97486.25
2022-10-30T03:00:21.607Z,97475.00
2022-10-30T03:02:48.220Z,97473.78
2022-10-30T03:05:14.811Z,97481.16
2022-10-30T03:07:43.836Z,97477.72
2022-10-30T03:10:13.010Z,97474.25
2022-10-30T03:12:42.048Z,97483.25
2022-10-30T03:15:09.038Z,97475.09
2022-10-30T03:17:37.962Z,97470.38
2022-10-30T03:20:07.079Z,97469.53
2022-10-30T03:22:33.664Z,97466.09
2022-10-30T03:25:02.884Z,97477.34
2022-10-30T03:27:32.203Z,97484.31
2022-10-30T03:30:03.568Z,97474.97
2022-10-30T03:32:32.930Z,97474.97
2022-10-30T03:34:59.491Z,97478.03
2022-10-30T03:37:30.620Z,97485.44
2022-10-30T03:39:57.158Z,97486.78
2022-10-30T03:42:23.742Z,97476.63
2022-10-30T03:44:52.722Z,97480.13
2022-10-30T03:47:19.226Z,97482.91
2022-10-30T03:49:48.260Z,97485.28
2022-10-30T03:52:17.039Z,97483.69
2022-10-30T03:54:43.696Z,97483.69
2022-10-30T03:57:10.783Z,97481.34
2022-10-30T03:59:37.284Z,97483.28
2022-10-30T04:02:06.688Z,97482.88
2022-10-30T04:04:33.672Z,97486.75
2022-10-30T04:07:00.251Z,97489.47
2022-10-30T04:09:29.134Z,97492.22
2022-10-30T04:11:57.867Z,97486.78
2022-10-30T04:14:24.362Z,97488.41
2022-10-30T04:16:50.921Z,97488.75
2022-10-30T04:19:18.701Z,97494.13
2022-10-30T04:21:47.799Z,97489.09
2022-10-30T04:24:18.751Z,97494.16
2022-10-30T04:26:47.624Z,97489.56
2022-10-30T04:29:16.675Z,97487.22
2022-10-30T04:31:45.808Z,97488.34
2022-10-30T04:34:12.397Z,97489.56
2022-10-30T04:36:43.716Z,97478.78
2022-10-30T04:39:12.791Z,97475.50
2022-10-30T04:41:43.908Z,97485.69
2022-10-30T04:44:10.495Z,97489.94
2022-10-30T04:46:39.406Z,97488.72
2022-10-30T04:49:06.351Z,97503.03
2022-10-30T04:51:35.317Z,97492.53
2022-10-30T04:54:04.612Z,97491.38
2022-10-30T04:56:33.619Z,97492.13
2022-10-30T04:59:02.713Z,97495.63
2022-10-30T05:01:31.822Z,97499.50
2022-10-30T05:04:02.071Z,97484.34
2022-10-30T05:06:31.368Z,97483.94
2022-10-30T05:08:58.126Z,97478.09
2022-10-30T05:11:24.707Z,97486.34
2022-10-30T05:13:53.567Z,97484.81
2022-10-30T05:16:22.522Z,97482.88
2022-10-30T05:18:49.080Z,97487.59
2022-10-30T05:21:15.670Z,97479.47
2022-10-30T05:23:44.840Z,97476.00
2022-10-30T05:26:13.816Z,97477.19
2022-10-30T05:28:41.611Z,97473.31
2022-10-30T05:31:08.281Z,97473.31
2022-10-30T05:33:39.750Z,97475.72
2022-10-30T05:36:06.965Z,97469.16
2022-10-30T05:38:38.020Z,97463.75
2022-10-30T05:41:06.785Z,97464.97
2022-10-30T05:43:33.285Z,97462.78
2022-10-30T05:46:01.876Z,97466.63
2022-10-30T05:48:28.426Z,97461.28
2022-10-30T05:50:58.219Z,97464.28
2022-10-30T05:53:25.145Z,97463.09
2022-10-30T05:55:56.111Z,97471.56
2022-10-30T05:58:22.651Z,97461.06
2022-10-30T06:00:49.250Z,97463.03
2022-10-30T06:03:16.057Z,97470.34
2022-10-30T06:05:45.249Z,97466.06
2022-10-30T06:08:16.249Z,97469.16
2022-10-30T06:10:45.152Z,97478.44
2022-10-30T06:13:16.648Z,97468.38
2022-10-30T06:15:43.194Z,97476.13
2022-10-30T06:18:10.906Z,97473.78
2022-10-30T06:20:37.504Z,97476.13
2022-10-30T06:23:08.865Z,97472.63
2022-10-30T06:25:40.942Z,97483.13
2022-10-30T06:28:14.258Z,97477.28
2022-10-30T06:30:43.399Z,97478.06
2022-10-30T06:33:10.373Z,97476.47
2022-10-30T06:35:37.099Z,97482.69
2022-10-30T06:38:05.068Z,97475.72
2022-10-30T06:40:31.795Z,97481.13
2022-10-30T06:43:01.365Z,97481.56
2022-10-30T06:45:28.837Z,97486.63
2022-10-30T06:47:55.551Z,97496.19
2022-10-30T06:50:22.479Z,97483.16
2022-10-30T06:52:49.595Z,97492.00
2022-10-30T06:55:18.785Z,97490.75
2022-10-30T06:57:45.355Z,97500.06
2022-10-30T07:00:13.288Z,97499.84
2022-10-30T07:02:42.060Z,97499.56
2022-10-30T07:05:10.898Z,97503.31
2022-10-30T07:07:39.933Z,97505.47
2022-10-30T07:10:09.238Z,97498.31
2022-10-30T07:12:35.851Z,97497.06
2022-10-30T07:15:02.767Z,97508.66
2022-10-30T07:17:31.494Z,97509.03
2022-10-30T07:19:58.036Z,97508.34
2022-10-30T07:22:24.922Z,97507.97
2022-10-30T07:24:58.784Z,97513.59
2022-10-30T07:27:27.622Z,97511.34
2022-10-30T07:29:54.162Z,97517.63
2022-10-30T07:32:20.690Z,97515.78
2022-10-30T07:34:47.204Z,97525.88
2022-10-30T07:37:13.792Z,97521.16
2022-10-30T07:39:40.288Z,97524.59
2022-10-30T07:42:06.821Z,97524.25
2022-10-30T07:44:35.566Z,97524.75
2022-10-30T07:47:02.097Z,97524.66
2022-10-30T07:49:28.612Z,97538.50
2022-10-30T07:51:57.539Z,97530.63
2022-10-30T07:54:24.204Z,97532.84
2022-10-30T07:56:50.892Z,97532.38
2022-10-30T07:59:20.336Z,97530.66
2022-10-30T08:01:46.967Z,97529.06
2022-10-30T08:04:14.129Z,97533.44
2022-10-30T08:06:40.731Z,97536.31
2022-10-30T08:09:12.586Z,97525.72
2022-10-30T08:11:41.422Z,97523.19
2022-10-30T08:14:10.526Z,97531.34
2022-10-30T08:16:37.048Z,97532.63
2022-10-30T08:19:03.733Z,97531.47
2022-10-30T08:21:32.392Z,97534.13
2022-10-30T08:23:59.066Z,97525.50
2022-10-30T08:26:30.234Z,97530.88
2022-10-30T08:28:59.099Z,97522.44
2022-10-30T08:31:27.827Z,97521.25
2022-10-30T08:33:59.212Z,97528.28
2022-10-30T08:36:25.795Z,97527.72
2022-10-30T08:38:58.482Z,97530.28
2022-10-30T08:41:25.009Z,97528.97
2022-10-30T08:43:51.774Z,97525.78
2022-10-30T08:46:18.299Z,97522.34
2022-10-30T08:48:44.841Z,97530.09
2022-10-30T08:51:11.403Z,97517.19
2022-10-30T08:53:37.936Z,97519.03
2022-10-30T08:56:05.347Z,97522.03
2022-10-30T08:58:32.052Z,97529.25
2022-10-30T09:01:01.446Z,97520.69
2022-10-30T09:03:33.337Z,97521.50
2022-10-30T09:06:01.190Z,97516.59
2022-10-30T09:08:30.617Z,97523.78
2022-10-30T09:11:00.608Z,97518.59
2022-10-30T09:13:28.708Z,97525.59
2022-10-30T09:16:03.322Z,97518.94
2022-10-30T09:18:30.312Z,97522.41
2022-10-30T09:20:56.845Z,97520.03
2022-10-30T09:23:23.419Z,97516.22
2022-10-30T09:25:49.951Z,97513.28
2022-10-30T09:28:18.706Z,97520.44
2022-10-30T09:30:45.355Z,97502.72
2022-10-30T09:33:11.940Z,97513.66
2022-10-30T09:35:40.758Z,97509.22
2022-10-30T09:38:07.419Z,97510.16
2022-10-30T09:41:01.042Z,97507.63
2022-10-30T09:43:58.341Z,97509.25
2022-10-30T09:46:27.828Z,97498.31
2022-10-30T09:49:05.559Z,97501.13
2022-10-30T09:52:06.327Z,97505.41
2022-10-30T09:54:39.714Z,97504.03
2022-10-30T09:57:32.198Z,97514.34
2022-10-30T10:00:15.112Z,97491.53
2022-10-30T10:02:58.637Z,97502.78
2022-10-30T10:05:32.128Z,97505.66
2022-10-30T10:08:04.482Z,97505.66
2022-10-30T10:10:43.038Z,97502.53
2022-10-30T10:13:27.453Z,97499.84
2022-10-30T10:16:16.373Z,97504.59
2022-10-30T10:18:57.510Z,97506.81
2022-10-30T10:21:29.115Z,97504.06
2022-10-30T10:24:01.334Z,97507.06
2022-10-30T10:26:50.472Z,97494.38
2022-10-30T10:29:34.173Z,97501.69
2022-10-30T10:32:00.707Z,97492.31
2022-10-30T10:34:41.460Z,97490.19
2022-10-30T10:37:42.476Z,97488.34
2022-10-30T10:40:36.726Z,97488.81
2022-10-30T10:43:57.469Z,97487.72
2022-10-30T10:47:06.033Z,97487.72
2022-10-30T10:49:52.019Z,97488.47
2022-10-30T10:52:23.506Z,97491.97
2022-10-30T10:54:57.780Z,97485.28
2022-10-30T10:57:33.500Z,97490.75
2022-10-30T11:00:22.606Z,97479.28
2022-10-30T11:03:07.550Z,97477.19
2022-10-30T11:05:39.436Z,97476.63
2022-10-30T11:08:19.371Z,97473.13
2022-10-30T11:10:53.995Z,97476.75
2022-10-30T11:13:20.584Z,97474.88
2022-10-30T11:16:34.069Z,97469.66
2022-10-30T11:19:10.334Z,97467.16
2022-10-30T11:21:50.450Z,97468.75
2022-10-30T11:24:31.509Z,97466.03
2022-10-30T11:27:18.554Z,97462.44
2022-10-30T11:29:51.909Z,97458.91
2022-10-30T11:32:22.828Z,97462.53
2022-10-30T11:35:07.847Z,97455.25
2022-10-30T11:37:39.577Z,97460.22
2022-10-30T11:40:12.045Z,97462.47
2022-10-30T11:42:41.061Z,97456.47
2022-10-30T11:45:19.442Z,97454.06
2022-10-30T11:47:47.340Z,97446.25
2022-10-30T11:50:32.846Z,97447.38
2022-10-30T11:53:11.794Z,97439.69
2022-10-30T11:55:43.685Z,97439.00
2022-10-30T11:58:27.279Z,97441.28
2022-10-30T12:01:36.129Z,97444.97
2022-10-30T12:04:32.624Z,97440.53
2022-10-30T12:07:14.292Z,97438.28
2022-10-30T12:09:48.073Z,97434.34
2022-10-30T12:12:24.458Z,97431.59
2022-10-30T12:14:53.177Z,97434.94
2022-10-30T12:17:21.306Z,97431.34
2022-10-30T12:19:54.874Z,97425.63
2022-10-30T12:22:31.412Z,97427.09
2022-10-30T12:25:02.424Z,97423.16
2022-10-30T12:27:31.416Z,97420.94
2022-10-30T12:30:08.885Z,97418.97
2022-10-30T12:32:48.580Z,97422.13
2022-10-30T12:35:25.306Z,97417.53
2022-10-30T12:37:54.336Z,97419.84
2022-10-30T12:40:32.510Z,97412.94
2022-10-30T12:43:07.381Z,97408.75
2022-10-30T12:45:41.089Z,97415.75
2022-10-30T12:48:25.950Z,97403.88
2022-10-30T12:51:21.249Z,97403.56
2022-10-30T12:54:23.480Z,97401.19
2022-10-30T12:57:04.020Z,97386.91
2022-10-30T12:59:56.055Z,97397.34
2022-10-30T13:02:33.733Z,97393.25
2022-10-30T13:05:06.314Z,97387.31
2022-10-30T13:07:47.365Z,97390.78
2022-10-30T13:10:30.148Z,97384.53
2022-10-30T13:13:03.737Z,97380.41
2022-10-30T13:15:46.868Z,97365.72
2022-10-30T13:18:22.416Z,97374.53
2022-10-30T13:21:07.006Z,97380.19
2022-10-30T13:23:56.540Z,97370.16
2022-10-30T13:26:31.361Z,97371.53
2022-10-30T13:29:13.025Z,97365.81
2022-10-30T13:32:19.751Z,97373.16
2022-10-30T13:35:15.794Z,97368.63
2022-10-30T13:37:49.987Z,97366.06
2022-10-30T13:40:25.450Z,97371.38
2022-10-30T13:43:15.723Z,97366.34
2022-10-30T13:46:19.282Z,97371.25
2022-10-30T13:49:06.003Z,97374.03
2022-10-30T13:51:46.636Z,97365.81
2022-10-30T13:54:23.330Z,97363.53
2022-10-30T13:56:51.741Z,97366.28
2022-10-30T13:59:42.286Z,97356.25
2022-10-30T14:02:20.450Z,97364.78
2022-10-30T14:04:49.237Z,97364.28
2022-10-30T14:07:32.854Z,97359.13
2022-10-30T14:10:02.401Z,97355.47
2022-10-30T14:13:00.637Z,97355.91
2022-10-30T14:15:41.197Z,97353.47
2022-10-30T14:18:13.704Z,97353.88
2022-10-30T14:20:42.618Z,97358.88
2022-10-30T14:23:15.025Z,97357.94
2022-10-30T14:25:44.018Z,97360.72
2022-10-30T14:28:24.640Z,97356.00
2022-10-30T14:31:14.058Z,97354.34
2022-10-30T14:33:40.557Z,97356.47
2022-10-30T14:36:16.111Z,97355.38
2022-10-30T14:38:42.895Z,97355.09
2022-10-30T14:41:26.877Z,97356.91
2022-10-30T14:44:04.862Z,97358.91
2022-10-30T14:46:44.467Z,97367.09
2022-10-30T14:49:31.626Z,97360.81
2022-10-30T14:52:32.852Z,97364.44
2022-10-30T14:55:39.313Z,97363.88
2022-10-30T14:58:08.079Z,97361.25
2022-10-30T15:00:41.529Z,97356.06
2022-10-30T15:03:18.920Z,97364.75
2022-10-30T15:06:14.800Z,97365.94
2022-10-30T15:08:44.472Z,97355.59
2022-10-30T15:11:17.832Z,97354.50
2022-10-30T15:13:51.129Z,97361.63
2022-10-30T15:16:21.276Z,97356.72
2022-10-30T15:19:02.057Z,97349.06
2022-10-30T15:21:33.400Z,97355.91
2022-10-30T15:24:03.348Z,97352.22
2022-10-30T15:26:39.003Z,97353.25
2022-10-30T15:29:10.202Z,97353.38
2022-10-30T15:31:39.057Z,97348.22
2022-10-30T15:34:23.129Z,97349.38
2022-10-30T15:36:49.666Z,97347.19
2022-10-30T15:39:20.222Z,97352.78
2022-10-30T15:41:59.878Z,97352.13
2022-10-30T15:44:28.775Z,97356.00
2022-10-30T15:46:57.038Z,97360.31
2022-10-30T15:49:39.057Z,97354.78
2022-10-30T15:52:17.066Z,97353.94
2022-10-30T15:54:47.311Z,97349.56
2022-10-30T15:58:01.198Z,97349.94
2022-10-30T16:00:29.607Z,97354.66
2022-10-30T16:03:19.259Z,97348.56
2022-10-30T16:05:46.329Z,97350.44
2022-10-30T16:08:19.165Z,97354.91
2022-10-30T16:10:46.701Z,97349.47
2022-10-30T16:13:23.812Z,97358.09
2022-10-30T16:15:52.676Z,97349.69
2022-10-30T16:18:25.399Z,97362.03
2022-10-30T16:21:02.309Z,97360.50
2022-10-30T16:23:30.454Z,97367.38
2022-10-30T16:25:58.857Z,97365.06
2022-10-30T16:28:39.686Z,97362.78
2022-10-30T16:31:15.798Z,97362.34
2022-10-30T16:33:45.535Z,97355.78
2022-10-30T16:36:17.063Z,97365.31
2022-10-30T16:38:52.191Z,97368.34
2022-10-30T16:41:24.095Z,97369.47
2022-10-30T16:44:27.194Z,97366.09
2022-10-30T16:46:57.575Z,97368.38
2022-10-30T16:49:30.904Z,97378.03
2022-10-30T16:52:00.571Z,97370.81
2022-10-30T16:54:33.457Z,97378.69
2022-10-30T16:57:07.627Z,97376.16
2022-10-30T16:59:42.971Z,97375.25
2022-10-30T17:02:26.364Z,97382.19
2022-10-30T17:04:58.235Z,97383.16
2022-10-30T17:07:28.490Z,97377.00
2022-10-30T17:09:57.255Z,97384.13
2022-10-30T17:12:29.225Z,97387.59
2022-10-30T17:15:10.912Z,97392.13
2022-10-30T17:17:39.683Z,97395.47
2022-10-30T17:20:23.818Z,97403.13
2022-10-30T17:23:14.639Z,97408.25
2022-10-30T17:25:41.376Z,97415.31
2022-10-30T17:28:25.805Z,97413.59
2022-10-30T17:30:55.625Z,97422.44
2022-10-30T17:33:23.745Z,97423.88
2022-10-30T17:35:50.920Z,97423.81
2022-10-30T17:38:22.314Z,97429.88
2022-10-30T17:40:49.150Z,97428.69
2022-10-30T17:43:18.202Z,97426.16
2022-10-30T17:45:45.239Z,97421.63
2022-10-30T17:48:14.433Z,97423.50
2022-10-30T17:50:41.524Z,97429.91
2022-10-30T17:53:21.828Z,97432.19
2022-10-30T17:56:19.058Z,97443.16
2022-10-30T17:58:45.739Z,97447.03
2022-10-30T18:01:24.752Z,97450.59
2022-10-30T18:03:55.326Z,97447.09
2022-10-30T18:06:26.538Z,97459.66
2022-10-30T18:08:53.728Z,97458.88
2022-10-30T18:11:24.497Z,97460.06
2022-10-30T18:13:53.115Z,97464.38
2022-10-30T18:16:25.838Z,97463.78
2022-10-30T18:18:54.743Z,97466.16
2022-10-30T18:21:23.919Z,97473.06
2022-10-30T18:23:53.195Z,97475.38
2022-10-30T18:26:26.585Z,97480.22
2022-10-30T18:28:53.751Z,97483.91
2022-10-30T18:31:25.926Z,97480.78
2022-10-30T18:33:52.917Z,97478.63
2022-10-30T18:36:22.489Z,97476.47
2022-10-30T18:38:52.596Z,97473.16
2022-10-30T18:41:28.826Z,97479.09
2022-10-30T18:43:55.402Z,97473.75
2022-10-30T18:46:22.038Z,97476.09
2022-10-30T18:48:50.799Z,97475.75
2022-10-30T18:51:24.341Z,97486.59
2022-10-30T18:53:52.115Z,97482.44
2022-10-30T18:56:32.368Z,97486.34
2022-10-30T18:59:01.942Z,97480.69
2022-10-30T19:01:33.773Z,97494.22
2022-10-30T19:04:02.634Z,97484.13
2022-10-30T19:06:29.653Z,97486.44
2022-10-30T19:08:56.318Z,97488.44
2022-10-30T19:11:25.080Z,97490.03
2022-10-30T19:13:55.265Z,97485.78
2022-10-30T19:16:27.150Z,97489.69
2022-10-30T19:18:58.899Z,97491.66
2022-10-30T19:21:28.588Z,97486.13
2022-10-30T19:24:01.185Z,97496.75
2022-10-30T19:26:30.009Z,97493.63
2022-10-30T19:28:56.564Z,97489.31
2022-10-30T19:31:23.096Z,97496.28
2022-10-30T19:33:54.629Z,97493.97
2022-10-30T19:36:36.121Z,97501.91
2022-10-30T19:39:13.149Z,97500.97
2022-10-30T19:41:41.958Z,97507.22
2022-10-30T19:44:12.776Z,97501.28
2022-10-30T19:46:41.558Z,97503.84
2022-10-30T19:49:19.365Z,97509.69
2022-10-30T19:51:46.565Z,97507.41
2022-10-30T19:54:15.643Z,97502.25
2022-10-30T19:56:45.028Z,97504.69
2022-10-30T19:59:17.414Z,97501.97
2022-10-30T20:01:46.584Z,97510.13
2022-10-30T20:04:13.706Z,97509.41
2022-10-30T20:06:42.722Z,97508.06
2022-10-30T20:09:15.014Z,97511.81
2022-10-30T20:11:43.982Z,97505.94
2022-10-30T20:14:10.531Z,97508.59
2022-10-30T20:16:37.106Z,97501.97
2022-10-30T20:19:25.244Z,97505.50
2022-10-30T20:21:55.441Z,97519.09
2022-10-30T20:24:28.007Z,97510.91
2022-10-30T20:26:57.141Z,97514.44
2022-10-30T20:29:26.516Z,97514.75
2022-10-30T20:31:55.365Z,97518.16
2022-10-30T20:34:24.406Z,97515.81
2022-10-30T20:36:53.323Z,97525.66
2022-10-30T20:39:19.861Z,97524.44
2022-10-30T20:41:48.621Z,97524.84
2022-10-30T20:44:15.178Z,97530.28
2022-10-30T20:46:44.009Z,97528.53
2022-10-30T20:49:17.837Z,97521.88
2022-10-30T20:51:48.130Z,97530.84
2022-10-30T20:54:17.618Z,97524.63
2022-10-30T20:56:46.485Z,97533.50
2022-10-30T20:59:13.041Z,97538.88
2022-10-30T21:01:39.742Z,97537.78
2022-10-30T21:04:08.570Z,97540.03
2022-10-30T21:06:35.471Z,97541.97
2022-10-30T21:09:09.792Z,97533.88
2022-10-30T21:11:41.605Z,97535.50
2022-10-30T21:14:08.185Z,97537.16
2022-10-30T21:16:37.220Z,97536.50
2022-10-30T21:19:06.123Z,97537.28
2022-10-30T21:21:34.874Z,97538.75
2022-10-30T21:24:03.946Z,97532.63
2022-10-30T21:26:34.988Z,97530.94
2022-10-30T21:29:01.941Z,97538.09
2022-10-30T21:31:28.856Z,97539.63
2022-10-30T21:34:00.216Z,97540.44
2022-10-30T21:36:27.179Z,97538.59
2022-10-30T21:38:53.782Z,97546.00
2022-10-30T21:41:24.918Z,97547.19
2022-10-30T21:43:59.000Z,97546.06
2022-10-30T21:46:30.597Z,97540.63
2022-10-30T21:49:02.209Z,97542.88
2022-10-30T21:51:31.492Z,97543.34
2022-10-30T21:54:00.777Z,97545.41
2022-10-30T21:56:30.369Z,97543.09
2022-10-30T21:59:00.277Z,97540.00
2022-10-30T22:01:31.714Z,97542.31
2022-10-30T22:03:59.914Z,97540.31
2022-10-30T22:06:31.696Z,97545.41
2022-10-30T22:08:59.007Z,97548.16
2022-10-30T22:11:28.278Z,97546.25
2022-10-30T22:13:59.011Z,97537.72
2022-10-30T22:16:29.912Z,97533.50
2022-10-30T22:18:59.622Z,97535.44
2022-10-30T22:21:26.770Z,97525.81
2022-10-30T22:23:53.348Z,97531.78
2022-10-30T22:26:22.221Z,97529.88
2022-10-30T22:28:54.343Z,97527.53
2022-10-30T22:31:21.933Z,97526.00
2022-10-30T22:33:50.889Z,97531.81
2022-10-30T22:36:31.134Z,97526.41
2022-10-30T22:39:12.262Z,97531.91
2022-10-30T22:41:42.210Z,97529.97
2022-10-30T22:44:12.902Z,97532.66
2022-10-30T22:46:39.476Z,97530.31
2022-10-30T22:49:08.620Z,97526.47
2022-10-30T22:51:37.341Z,97527.59
2022-10-30T22:54:09.409Z,97524.88
2022-10-30T22:56:39.179Z,97526.03
2022-10-30T22:59:08.664Z,97527.97
2022-10-30T23:01:38.147Z,97523.78
2022-10-30T23:04:06.187Z,97525.38
2022-10-30T23:06:34.305Z,97523.88
2022-10-30T23:09:03.838Z,97530.47
2022-10-30T23:11:30.706Z,97520.06
2022-10-30T23:13:57.247Z,97534.38
2022-10-30T23:16:27.115Z,97522.78
2022-10-30T23:18:55.863Z,97520.16
2022-10-30T23:21:31.669Z,97526.38
2022-10-30T23:23:59.137Z,97514.34
2022-10-30T23:26:28.715Z,97519.38
2022-10-30T23:28:59.270Z,97522.88
2022-10-30T23:31:27.637Z,97523.28
2022-10-30T23:33:59.443Z,97526.44
2022-10-30T23:36:26.408Z,97525.28
2022-10-30T23:38:59.252Z,97519.91
2022-10-30T23:41:32.612Z,97524.59
2022-10-30T23:44:01.626Z,97524.63
2022-10-30T23:46:28.791Z,97521.13
2022-10-30T23:48:55.404Z,97526.16
2022-10-30T23:51:24.424Z,97522.69
2022-10-30T23:53:53.255Z,97523.47
2022-10-30T23:56:25.029Z,97524.63
2022-10-30T23:58:52.524Z,97524.63
